createdAt,value
2023-02-15T00:00:07.249Z,5.63
2023-02-15T00:02:33.859Z,7.65
2023-02-15T00:03:26.995Z,7.65
2023-02-15T00:05:00.252Z,7.57
2023-02-15T00:07:26.849Z,15.13
2023-02-15T00:08:26.982Z,15.13
2023-02-15T00:09:53.222Z,4.40
2023-02-15T00:12:19.829Z,6.53
2023-02-15T00:13:26.897Z,6.53
2023-02-15T00:14:46.288Z,10.95
2023-02-15T00:17:12.777Z,6.70
2023-02-15T00:18:26.958Z,6.70
2023-02-15T00:19:39.201Z,4.88
2023-02-15T00:22:05.641Z,6.65
2023-02-15T00:23:26.927Z,6.65
2023-02-15T00:24:32.118Z,5.45
2023-02-15T00:26:59.047Z,4.43
2023-02-15T00:28:27.001Z,4.43
2023-02-15T00:29:26.013Z,7.68
2023-02-15T00:31:53.321Z,6.22
2023-02-15T00:33:26.924Z,6.22
2023-02-15T00:34:22.780Z,14.73
2023-02-15T00:36:49.623Z,6.55
2023-02-15T00:38:26.932Z,6.55
2023-02-15T00:39:17.372Z,5.22
2023-02-15T00:41:44.310Z,5.97
2023-02-15T00:43:26.909Z,5.97
2023-02-15T00:44:10.785Z,9.52
2023-02-15T00:46:37.694Z,7.82
2023-02-15T00:48:26.903Z,7.82
2023-02-15T00:49:04.384Z,5.18
2023-02-15T00:51:30.750Z,6.25
2023-02-15T00:53:27.019Z,6.25
2023-02-15T00:53:57.423Z,5.30
2023-02-15T00:56:23.855Z,7.00
2023-02-15T00:58:26.944Z,7.00
2023-02-15T00:58:50.458Z,9.18
2023-02-15T01:01:19.956Z,4.82
2023-02-15T01:03:26.933Z,4.82
2023-02-15T01:03:47.667Z,7.13
2023-02-15T01:06:15.816Z,6.38
2023-02-15T01:08:26.942Z,6.38
2023-02-15T01:08:42.307Z,6.47
2023-02-15T01:11:12.668Z,6.07
2023-02-15T01:13:26.911Z,6.07
2023-02-15T01:13:40.390Z,12.85
2023-02-15T01:16:07.068Z,7.18
2023-02-15T01:18:26.956Z,7.18
2023-02-15T01:18:34.314Z,6.07
2023-02-15T01:21:01.010Z,6.05
2023-02-15T01:23:27.551Z,4.85
2023-02-15T01:23:27.746Z,4.85
2023-02-15T01:25:54.080Z,5.35
2023-02-15T01:28:20.529Z,5.68
2023-02-15T01:28:26.928Z,5.68
2023-02-15T01:30:47.346Z,6.35
2023-02-15T01:33:18.682Z,7.60
2023-02-15T01:33:26.929Z,7.60
2023-02-15T01:35:48.412Z,5.70
2023-02-15T01:38:15.676Z,8.73
2023-02-15T01:38:27.057Z,8.73
2023-02-15T01:40:42.516Z,5.60
2023-02-15T01:43:13.110Z,10.07
2023-02-15T01:43:26.918Z,10.07
2023-02-15T01:45:40.517Z,10.63
2023-02-15T01:48:23.729Z,6.00
2023-02-15T01:48:26.991Z,6.00
2023-02-15T01:51:03.033Z,6.60
2023-02-15T01:53:26.957Z,6.60
2023-02-15T01:53:40.406Z,4.95
2023-02-15T01:56:14.380Z,5.18
2023-02-15T01:58:26.925Z,5.18
2023-02-15T01:58:40.947Z,4.65
2023-02-15T02:01:09.015Z,5.00
2023-02-15T02:03:26.961Z,5.00
2023-02-15T02:03:55.689Z,4.30
2023-02-15T02:06:23.349Z,4.88
2023-02-15T02:08:26.950Z,4.88
2023-02-15T02:08:50.821Z,5.72
2023-02-15T02:11:17.292Z,7.47
2023-02-15T02:13:26.938Z,7.47
2023-02-15T02:13:45.595Z,4.90
2023-02-15T02:16:23.870Z,4.28
2023-02-15T02:18:26.961Z,4.28
2023-02-15T02:19:18.750Z,4.35
2023-02-15T02:22:09.855Z,11.93
2023-02-15T02:23:26.939Z,11.93
2023-02-15T02:25:04.923Z,4.80
2023-02-15T02:27:46.320Z,4.93
2023-02-15T02:28:26.947Z,4.93
2023-02-15T02:30:31.506Z,4.85
2023-02-15T02:33:22.216Z,5.13
2023-02-15T02:33:26.962Z,5.13
2023-02-15T02:36:35.891Z,6.72
2023-02-15T02:38:26.916Z,6.72
2023-02-15T02:39:21.041Z,4.65
2023-02-15T02:42:23.153Z,8.40
2023-02-15T02:43:27.033Z,8.40
2023-02-15T02:44:59.088Z,5.28
2023-02-15T02:47:33.079Z,9.43
2023-02-15T02:48:27.018Z,9.43
2023-02-15T02:50:13.194Z,5.63
2023-02-15T02:52:51.765Z,5.82
2023-02-15T02:53:26.986Z,5.82
2023-02-15T02:55:39.136Z,4.18
2023-02-15T02:58:24.217Z,4.88
2023-02-15T02:58:27.038Z,4.88
2023-02-15T03:00:57.625Z,5.00
2023-02-15T03:03:42.010Z,10.88
2023-02-15T03:03:42.166Z,10.88
2023-02-15T03:06:34.410Z,4.40
2023-02-15T03:08:26.966Z,4.40
2023-02-15T03:09:18.469Z,3.58
2023-02-15T03:11:45.910Z,7.30
2023-02-15T03:13:26.961Z,7.30
2023-02-15T03:14:14.963Z,3.05
2023-02-15T03:16:44.412Z,5.10
2023-02-15T03:18:26.961Z,5.10
2023-02-15T03:19:14.514Z,4.93
2023-02-15T03:21:58.665Z,3.83
2023-02-15T03:23:27.003Z,3.83
2023-02-15T03:24:32.861Z,5.40
2023-02-15T03:27:00.869Z,5.28
2023-02-15T03:28:26.993Z,5.28
2023-02-15T03:29:29.436Z,6.65
2023-02-15T03:32:06.447Z,5.22
2023-02-15T03:33:26.994Z,5.22
2023-02-15T03:34:33.043Z,13.27
2023-02-15T03:36:59.395Z,3.95
2023-02-15T03:38:27.150Z,3.95
2023-02-15T03:39:50.711Z,3.97
2023-02-15T03:42:33.194Z,5.90
2023-02-15T03:43:26.989Z,5.90
2023-02-15T03:45:06.810Z,7.60
2023-02-15T03:47:41.209Z,9.63
2023-02-15T03:48:27.024Z,9.63
2023-02-15T03:50:36.647Z,4.43
2023-02-15T03:53:06.088Z,3.53
2023-02-15T03:53:27.000Z,3.53
2023-02-15T03:55:32.667Z,5.82
2023-02-15T03:58:17.781Z,8.07
2023-02-15T03:58:27.171Z,8.07
2023-02-15T04:01:14.688Z,6.97
2023-02-15T04:03:26.937Z,6.97
2023-02-15T04:04:02.602Z,4.15
2023-02-15T04:06:28.981Z,4.90
2023-02-15T04:08:26.966Z,4.90
2023-02-15T04:09:14.290Z,3.10
2023-02-15T04:11:40.690Z,4.72
2023-02-15T04:13:26.986Z,4.72
2023-02-15T04:14:27.078Z,5.97
2023-02-15T04:16:56.310Z,5.68
2023-02-15T04:18:26.965Z,5.68
2023-02-15T04:19:40.942Z,8.70
2023-02-15T04:22:25.622Z,6.40
2023-02-15T04:23:26.988Z,6.40
2023-02-15T04:25:10.560Z,5.10
2023-02-15T04:27:37.664Z,8.32
2023-02-15T04:28:26.946Z,8.32
2023-02-15T04:30:07.763Z,4.28
2023-02-15T04:32:35.309Z,6.82
2023-02-15T04:33:26.988Z,6.82
2023-02-15T04:35:01.911Z,13.38
2023-02-15T04:37:28.259Z,5.90
2023-02-15T04:38:26.977Z,5.90
2023-02-15T04:39:54.917Z,4.10
2023-02-15T04:42:21.523Z,4.38
2023-02-15T04:43:26.983Z,4.38
2023-02-15T04:44:47.935Z,4.43
2023-02-15T04:47:14.267Z,4.70
2023-02-15T04:48:26.997Z,4.70
2023-02-15T04:49:40.640Z,5.70
2023-02-15T04:52:06.979Z,5.10
2023-02-15T04:53:26.964Z,5.10
2023-02-15T04:54:33.439Z,16.52
2023-02-15T04:56:59.828Z,6.88
2023-02-15T04:58:26.961Z,6.88
2023-02-15T04:59:26.230Z,4.22
2023-02-15T05:01:52.553Z,6.00
2023-02-15T05:03:27.100Z,6.00
2023-02-15T05:04:19.065Z,5.13
2023-02-15T05:06:45.810Z,3.95
2023-02-15T05:08:26.964Z,3.95
2023-02-15T05:09:13.216Z,6.00
2023-02-15T05:11:39.563Z,8.07
2023-02-15T05:13:27.032Z,8.07
2023-02-15T05:14:06.108Z,5.07
2023-02-15T05:16:32.718Z,4.60
2023-02-15T05:18:26.978Z,4.60
2023-02-15T05:18:59.277Z,5.07
2023-02-15T05:21:25.985Z,7.00
2023-02-15T05:23:27.011Z,7.00
2023-02-15T05:23:52.465Z,5.55
2023-02-15T05:26:43.185Z,3.75
2023-02-15T05:28:26.990Z,3.75
2023-02-15T05:29:10.651Z,3.88
2023-02-15T05:31:38.156Z,7.43
2023-02-15T05:33:26.959Z,7.43
2023-02-15T05:34:04.737Z,4.32
2023-02-15T05:36:31.145Z,3.97
2023-02-15T05:38:26.994Z,3.97
2023-02-15T05:38:57.677Z,5.10
2023-02-15T05:41:24.091Z,5.32
2023-02-15T05:43:26.998Z,5.32
2023-02-15T05:43:50.528Z,4.25
2023-02-15T05:46:17.156Z,4.40
2023-02-15T05:48:26.975Z,4.40
2023-02-15T05:48:45.818Z,4.68
2023-02-15T05:51:16.954Z,3.58
2023-02-15T05:53:26.974Z,3.58
2023-02-15T05:53:43.562Z,6.55
2023-02-15T05:56:11.818Z,3.78
2023-02-15T05:58:27.041Z,3.78
2023-02-15T05:58:40.636Z,3.45
2023-02-15T06:01:19.120Z,4.13
2023-02-15T06:03:27.139Z,4.13
2023-02-15T06:03:46.953Z,4.60
2023-02-15T06:06:13.624Z,3.53
2023-02-15T06:08:27.035Z,3.53
2023-02-15T06:08:40.688Z,3.63
2023-02-15T06:11:07.364Z,4.10
2023-02-15T06:13:28.233Z,4.10
2023-02-15T06:13:37.246Z,3.78
2023-02-15T06:16:05.695Z,5.28
2023-02-15T06:18:26.969Z,5.28
2023-02-15T06:18:32.297Z,4.35
2023-02-15T06:20:58.642Z,3.70
2023-02-15T06:23:27.966Z,4.28
2023-02-15T06:23:28.124Z,4.28
2023-02-15T06:25:56.734Z,7.55
2023-02-15T06:28:23.443Z,3.78
2023-02-15T06:28:27.003Z,3.78
2023-02-15T06:30:49.835Z,4.82
2023-02-15T06:33:30.479Z,7.15
2023-02-15T06:33:30.740Z,7.15
2023-02-15T06:36:01.885Z,5.22
2023-02-15T06:38:26.979Z,5.22
2023-02-15T06:38:31.606Z,5.82
2023-02-15T06:41:07.167Z,4.63
2023-02-15T06:43:28.016Z,4.63
2023-02-15T06:43:36.104Z,6.88
2023-02-15T06:48:27.280Z,3.70
2023-02-15T06:48:48.322Z,3.00
2023-02-15T06:51:17.808Z,4.53
2023-02-15T06:53:28.090Z,4.53
2023-02-15T06:53:47.344Z,4.93
2023-02-15T06:56:23.924Z,4.70
2023-02-15T06:58:27.354Z,4.70
2023-02-15T06:58:59.438Z,4.97
2023-02-15T07:01:26.043Z,3.70
2023-02-15T07:03:27.010Z,3.70
2023-02-15T07:03:52.352Z,6.32
2023-02-15T07:06:19.012Z,6.28
2023-02-15T07:08:27.075Z,6.28
2023-02-15T07:08:45.441Z,5.78
2023-02-15T07:11:30.496Z,3.42
2023-02-15T07:13:26.993Z,3.42
2023-02-15T07:13:57.025Z,5.15
2023-02-15T07:16:23.444Z,4.18
2023-02-15T07:18:27.005Z,4.18
2023-02-15T07:18:49.989Z,4.03
2023-02-15T07:21:16.390Z,4.50
2023-02-15T07:23:27.003Z,4.50
2023-02-15T07:23:43.066Z,3.53
2023-02-15T07:26:09.901Z,5.53
2023-02-15T07:28:27.018Z,5.53
2023-02-15T07:28:36.580Z,7.70
2023-02-15T07:31:04.464Z,4.40
2023-02-15T07:33:26.998Z,4.40
2023-02-15T07:33:32.347Z,3.72
2023-02-15T07:36:02.297Z,4.07
2023-02-15T07:38:27.005Z,4.07
2023-02-15T07:38:35.205Z,6.03
2023-02-15T07:41:03.242Z,7.55
2023-02-15T07:43:26.993Z,7.55
2023-02-15T07:43:30.753Z,5.72
2023-02-15T07:46:06.175Z,4.35
2023-02-15T07:48:27.048Z,4.35
2023-02-15T07:48:33.090Z,3.90
2023-02-15T07:51:05.249Z,3.88
2023-02-15T07:53:27.006Z,3.88
2023-02-15T07:53:32.535Z,4.65
2023-02-15T07:56:03.636Z,3.10
2023-02-15T07:58:26.979Z,3.10
2023-02-15T07:58:48.616Z,6.22
2023-02-15T08:01:15.892Z,4.57
2023-02-15T08:03:27.024Z,4.57
2023-02-15T08:03:42.576Z,3.90
2023-02-15T08:06:09.184Z,3.40
2023-02-15T08:08:27.022Z,3.40
2023-02-15T08:08:36.409Z,3.53
2023-02-15T08:11:27.249Z,3.80
2023-02-15T08:13:27.002Z,3.80
2023-02-15T08:14:04.728Z,5.53
2023-02-15T08:16:34.783Z,5.63
2023-02-15T08:18:27.000Z,5.63
2023-02-15T08:19:23.480Z,5.10
2023-02-15T08:22:04.978Z,5.47
2023-02-15T08:23:26.996Z,5.47
2023-02-15T08:24:34.555Z,5.03
2023-02-15T08:27:06.064Z,4.18
2023-02-15T08:28:27.021Z,4.18
2023-02-15T08:29:35.011Z,4.05
2023-02-15T08:32:06.992Z,4.15
2023-02-15T08:33:26.997Z,4.15
2023-02-15T08:34:36.077Z,5.85
2023-02-15T08:37:02.524Z,3.80
2023-02-15T08:38:27.063Z,3.80
2023-02-15T08:39:32.290Z,6.70
2023-02-15T08:41:59.403Z,4.25
2023-02-15T08:43:28.118Z,4.25
2023-02-15T08:44:25.851Z,3.97
2023-02-15T08:46:52.243Z,4.57
2023-02-15T08:48:27.202Z,4.57
2023-02-15T08:49:22.732Z,4.28
2023-02-15T08:51:50.209Z,4.43
2023-02-15T08:53:27.069Z,4.43
2023-02-15T08:54:22.134Z,4.70
2023-02-15T08:56:49.232Z,5.88
2023-02-15T08:58:27.113Z,5.88
2023-02-15T08:59:23.999Z,5.68
2023-02-15T09:01:52.186Z,5.00
2023-02-15T09:03:27.006Z,5.00
2023-02-15T09:04:18.949Z,5.20
2023-02-15T09:06:48.888Z,6.07
2023-02-15T09:08:27.027Z,6.07
2023-02-15T09:09:16.782Z,5.00
2023-02-15T09:11:45.810Z,4.97
2023-02-15T09:13:27.046Z,4.97
2023-02-15T09:14:18.236Z,5.32
2023-02-15T09:16:52.022Z,6.88
2023-02-15T09:18:27.066Z,6.88
2023-02-15T09:19:19.542Z,5.07
2023-02-15T09:21:46.918Z,5.90
2023-02-15T09:23:27.547Z,5.90
2023-02-15T09:24:16.009Z,8.60
2023-02-15T09:26:45.385Z,7.70
2023-02-15T09:28:27.080Z,7.70
2023-02-15T09:29:13.436Z,6.72
2023-02-15T09:31:49.533Z,6.30
2023-02-15T09:33:27.167Z,6.30
2023-02-15T09:34:18.363Z,5.47
2023-02-15T09:36:45.540Z,6.68
2023-02-15T09:38:27.168Z,6.68
2023-02-15T09:39:14.721Z,7.25
2023-02-15T09:41:55.609Z,6.00
2023-02-15T09:43:27.029Z,6.00
2023-02-15T09:44:46.849Z,5.60
2023-02-15T09:47:42.987Z,5.55
2023-02-15T09:48:27.047Z,5.55
2023-02-15T09:50:29.383Z,6.55
2023-02-15T09:53:27.999Z,6.90
2023-02-15T09:53:28.154Z,6.90
2023-02-15T09:56:07.694Z,6.80
2023-02-15T09:58:27.045Z,6.80
2023-02-15T09:58:52.099Z,7.32
2023-02-15T10:01:37.266Z,5.15
2023-02-15T10:03:27.057Z,5.15
2023-02-15T10:04:48.763Z,6.80
2023-02-15T10:07:22.744Z,5.78
2023-02-15T10:08:27.029Z,5.78
2023-02-15T10:10:26.225Z,6.38
2023-02-15T10:13:17.776Z,10.20
2023-02-15T10:13:27.044Z,10.20
2023-02-15T10:15:58.217Z,13.00
2023-02-15T10:18:50.833Z,7.47
2023-02-15T10:18:50.973Z,7.47
2023-02-15T10:21:26.354Z,8.02
2023-02-15T10:23:27.051Z,8.02
2023-02-15T10:24:40.498Z,6.10
2023-02-15T10:27:19.473Z,5.95
2023-02-15T10:28:27.074Z,5.95
2023-02-15T10:29:57.516Z,5.80
2023-02-15T10:32:27.115Z,6.50
2023-02-15T10:33:27.046Z,6.50
2023-02-15T10:35:04.572Z,7.05
2023-02-15T10:37:59.533Z,8.93
2023-02-15T10:38:27.045Z,8.93
2023-02-15T10:40:50.665Z,6.82
2023-02-15T10:43:48.203Z,6.95
2023-02-15T10:43:48.396Z,6.95
2023-02-15T10:46:34.623Z,7.97
2023-02-15T10:48:27.200Z,7.97
2023-02-15T10:49:25.148Z,7.03
2023-02-15T10:51:51.517Z,7.40
2023-02-15T10:53:27.064Z,7.40
2023-02-15T10:54:29.351Z,9.52
2023-02-15T10:57:17.718Z,10.18
2023-02-15T10:58:27.060Z,10.18
2023-02-15T11:00:02.483Z,12.43
2023-02-15T11:02:57.034Z,8.98
2023-02-15T11:03:27.058Z,8.98
2023-02-15T11:05:37.934Z,6.55
2023-02-15T11:08:08.766Z,7.38
2023-02-15T11:08:27.046Z,7.38
2023-02-15T11:10:37.717Z,7.93
2023-02-15T11:13:10.778Z,16.13
2023-02-15T11:13:27.072Z,16.13
2023-02-15T11:15:50.257Z,10.27
2023-02-15T11:18:34.791Z,10.35
2023-02-15T11:18:34.913Z,10.35
2023-02-15T11:21:26.144Z,7.15
2023-02-15T11:23:27.040Z,7.15
2023-02-15T11:23:53.456Z,8.18
2023-02-15T11:26:32.926Z,7.45
2023-02-15T11:28:27.087Z,7.45
2023-02-15T11:29:12.916Z,15.73
2023-02-15T11:31:46.177Z,7.47
2023-02-15T11:33:27.050Z,7.47
2023-02-15T11:34:34.374Z,7.30
2023-02-15T11:37:07.109Z,8.82
2023-02-15T11:38:27.080Z,8.82
2023-02-15T11:42:07.713Z,8.07
2023-02-15T11:43:27.063Z,8.07
2023-02-15T11:44:45.770Z,11.57
2023-02-15T11:47:15.524Z,9.77
2023-02-15T11:48:27.107Z,9.77
2023-02-15T11:49:42.105Z,8.65
2023-02-15T11:52:13.315Z,10.60
2023-02-15T11:53:27.158Z,10.60
2023-02-15T11:54:53.389Z,9.05
2023-02-15T11:57:41.462Z,6.80
2023-02-15T11:58:27.064Z,6.80
2023-02-15T12:00:17.758Z,8.82
2023-02-15T12:02:50.887Z,8.00
2023-02-15T12:03:27.089Z,8.00
2023-02-15T12:05:23.012Z,8.82
2023-02-15T12:07:53.688Z,7.40
2023-02-15T12:08:27.071Z,7.40
2023-02-15T12:10:37.540Z,8.10
2023-02-15T12:13:19.147Z,11.55
2023-02-15T12:13:27.121Z,11.55
2023-02-15T12:15:49.808Z,9.45
2023-02-15T12:18:41.603Z,8.80
2023-02-15T12:18:41.753Z,8.80
2023-02-15T12:21:12.825Z,14.32
2023-02-15T12:23:27.077Z,14.32
2023-02-15T12:23:51.697Z,7.80
2023-02-15T12:26:33.132Z,11.02
2023-02-15T12:28:27.082Z,11.02
2023-02-15T12:29:03.119Z,10.52
2023-02-15T12:31:36.935Z,8.55
2023-02-15T12:33:27.056Z,8.55
2023-02-15T12:34:12.437Z,9.25
2023-02-15T12:36:47.979Z,9.23
2023-02-15T12:38:27.074Z,9.23
2023-02-15T12:39:14.358Z,12.48
2023-02-15T12:42:00.068Z,12.57
2023-02-15T12:43:27.128Z,12.57
2023-02-15T12:44:34.622Z,9.50
2023-02-15T12:47:04.994Z,7.43
2023-02-15T12:48:27.110Z,7.43
2023-02-15T12:49:36.610Z,11.63
2023-02-15T12:52:08.857Z,8.35
2023-02-15T12:53:27.144Z,8.35
2023-02-15T12:54:41.489Z,8.48
2023-02-15T12:58:27.137Z,11.16
2023-02-15T12:59:53.945Z,13.23
2023-02-15T13:02:25.026Z,11.75
2023-02-15T13:03:27.137Z,11.75
2023-02-15T13:04:52.318Z,16.25
2023-02-15T13:07:19.035Z,10.20
2023-02-15T13:08:27.110Z,10.20
2023-02-15T13:09:45.858Z,11.70
2023-02-15T13:12:31.833Z,8.90
2023-02-15T13:13:27.142Z,8.90
2023-02-15T13:15:00.030Z,10.15
2023-02-15T13:17:30.915Z,8.13
2023-02-15T13:18:27.109Z,8.13
2023-02-15T13:20:03.592Z,11.57
2023-02-15T13:22:43.029Z,9.43
2023-02-15T13:23:27.120Z,9.43
2023-02-15T13:25:22.819Z,8.10
2023-02-15T13:28:01.429Z,11.60
2023-02-15T13:28:27.097Z,11.60
2023-02-15T13:30:39.068Z,10.93
2023-02-15T13:33:31.667Z,12.05
2023-02-15T13:33:31.796Z,12.05
2023-02-15T13:36:10.796Z,12.27
2023-02-15T13:38:27.110Z,12.27
2023-02-15T13:39:03.101Z,8.45
2023-02-15T13:41:42.401Z,9.10
2023-02-15T13:43:27.141Z,9.10
2023-02-15T13:44:38.908Z,9.73
2023-02-15T13:47:26.960Z,19.60
2023-02-15T13:48:36.949Z,19.60
2023-02-15T13:49:53.451Z,12.48
2023-02-15T13:52:25.864Z,11.10
2023-02-15T13:53:27.119Z,11.10
2023-02-15T13:55:04.517Z,8.68
2023-02-15T13:57:30.862Z,10.60
2023-02-15T13:58:27.114Z,10.60
2023-02-15T14:00:09.466Z,9.35
2023-02-15T14:03:06.656Z,13.63
2023-02-15T14:03:27.213Z,13.63
2023-02-15T14:05:35.790Z,10.15
2023-02-15T14:08:20.611Z,10.02
2023-02-15T14:08:27.100Z,10.02
2023-02-15T14:11:11.982Z,10.07
2023-02-15T14:13:27.094Z,10.07
2023-02-15T14:14:02.992Z,8.68
2023-02-15T14:17:04.301Z,7.82
2023-02-15T14:18:27.115Z,7.82
2023-02-15T14:19:57.808Z,10.40
2023-02-15T14:22:32.846Z,15.70
2023-02-15T14:23:27.097Z,15.70
2023-02-15T14:25:36.416Z,8.35
2023-02-15T14:28:06.080Z,13.40
2023-02-15T14:28:27.161Z,13.40
2023-02-15T14:30:43.747Z,18.38
2023-02-15T14:33:16.551Z,13.60
2023-02-15T14:33:27.134Z,13.60
2023-02-15T14:38:40.681Z,8.48
2023-02-15T14:38:40.847Z,8.48
2023-02-15T14:41:27.115Z,8.30
2023-02-15T14:43:27.105Z,8.30
2023-02-15T14:44:12.291Z,8.88
2023-02-15T14:47:05.798Z,13.43
2023-02-15T14:48:27.108Z,13.43
2023-02-15T14:49:36.287Z,10.13
2023-02-15T14:52:09.231Z,8.98
2023-02-15T14:53:27.225Z,8.98
2023-02-15T14:54:35.541Z,12.02
2023-02-15T14:57:01.881Z,12.80
2023-02-15T14:58:27.101Z,12.80
2023-02-15T14:59:53.344Z,11.35
2023-02-15T15:02:24.591Z,12.13
2023-02-15T15:03:27.149Z,12.13
2023-02-15T15:05:03.155Z,8.40
2023-02-15T15:07:37.494Z,11.15
2023-02-15T15:08:27.153Z,11.15
2023-02-15T15:10:26.934Z,9.85
2023-02-15T15:12:55.234Z,9.82
2023-02-15T15:13:27.125Z,9.82
2023-02-15T15:15:27.911Z,8.30
2023-02-15T15:18:05.162Z,11.52
2023-02-15T15:18:27.134Z,11.52
2023-02-15T15:20:41.879Z,9.90
2023-02-15T15:23:18.851Z,17.30
2023-02-15T15:23:27.160Z,17.30
2023-02-15T15:25:48.001Z,15.32
2023-02-15T15:28:36.139Z,10.45
2023-02-15T15:28:36.303Z,10.45
2023-02-15T15:31:40.934Z,10.25
2023-02-15T15:33:27.124Z,10.25
2023-02-15T15:34:45.506Z,12.68
2023-02-15T15:37:11.850Z,8.35
2023-02-15T15:38:27.091Z,8.35
2023-02-15T15:40:39.899Z,13.90
2023-02-15T15:43:56.718Z,10.98
2023-02-15T15:43:57.006Z,10.98
2023-02-15T15:46:38.413Z,9.70
2023-02-15T15:48:27.134Z,9.70
2023-02-15T15:49:18.906Z,10.20
2023-02-15T15:51:46.801Z,8.05
2023-02-15T15:53:27.139Z,8.05
2023-02-15T15:54:25.383Z,9.55
2023-02-15T15:57:04.682Z,8.45
2023-02-15T15:58:27.166Z,8.45
2023-02-15T15:59:33.662Z,16.58
2023-02-15T16:02:14.230Z,10.05
2023-02-15T16:03:27.159Z,10.05
2023-02-15T16:04:40.652Z,10.23
2023-02-15T16:07:19.261Z,8.88
2023-02-15T16:08:27.135Z,8.88
2023-02-15T16:09:55.869Z,10.88
2023-02-15T16:12:23.820Z,13.95
2023-02-15T16:13:27.210Z,13.95
2023-02-15T16:14:52.705Z,15.65
2023-02-15T16:17:23.634Z,15.48
2023-02-15T16:18:27.171Z,15.48
2023-02-15T16:19:51.496Z,13.57
2023-02-15T16:22:28.766Z,13.70
2023-02-15T16:23:27.147Z,13.70
2023-02-15T16:25:32.429Z,10.57
2023-02-15T16:28:07.653Z,13.52
2023-02-15T16:28:27.146Z,13.52
2023-02-15T16:30:37.153Z,13.43
2023-02-15T16:33:17.390Z,12.60
2023-02-15T16:33:27.191Z,12.60
2023-02-15T16:35:58.266Z,16.10
2023-02-15T16:38:42.957Z,16.80
2023-02-15T16:38:43.121Z,16.80
2023-02-15T16:41:26.325Z,11.52
2023-02-15T16:43:27.155Z,11.52
2023-02-15T16:43:54.989Z,8.63
2023-02-15T16:46:37.306Z,12.65
2023-02-15T16:48:27.144Z,12.65
2023-02-15T16:49:15.400Z,7.35
2023-02-15T16:51:44.107Z,6.88
2023-02-15T16:53:27.165Z,6.88
2023-02-15T16:54:20.310Z,11.68
2023-02-15T16:56:47.432Z,7.18
2023-02-15T16:58:27.141Z,7.18
2023-02-15T16:59:30.303Z,7.20
2023-02-15T17:03:27.141Z,7.50
2023-02-15T17:04:23.610Z,7.90
2023-02-15T17:07:19.155Z,10.43
2023-02-15T17:08:27.282Z,10.43
2023-02-15T17:09:54.322Z,9.40
2023-02-15T17:12:56.308Z,10.75
2023-02-15T17:13:27.192Z,10.75
2023-02-15T17:15:37.532Z,8.30
2023-02-15T17:18:15.855Z,8.75
2023-02-15T17:18:27.166Z,8.75
2023-02-15T17:20:44.524Z,7.75
2023-02-15T17:23:31.474Z,11.15
2023-02-15T17:23:31.664Z,11.15
2023-02-15T17:25:59.562Z,11.77
2023-02-15T17:28:30.520Z,10.50
2023-02-15T17:28:30.865Z,10.50
2023-02-15T17:30:59.000Z,16.50
2023-02-15T17:33:37.803Z,8.70
2023-02-15T17:33:37.957Z,8.70
2023-02-15T17:36:23.322Z,9.75
2023-02-15T17:38:27.142Z,9.75
2023-02-15T17:38:59.050Z,7.75
2023-02-15T17:41:38.032Z,11.23
2023-02-15T17:43:27.166Z,11.23
2023-02-15T17:44:05.208Z,12.05
2023-02-15T17:46:37.825Z,7.68
2023-02-15T17:48:27.130Z,7.68
2023-02-15T17:51:32.218Z,10.75
2023-02-15T17:53:27.137Z,10.75
2023-02-15T17:54:17.270Z,9.73
2023-02-15T17:56:43.653Z,6.85
2023-02-15T17:58:27.179Z,6.85
2023-02-15T17:59:12.364Z,7.65
2023-02-15T18:02:07.854Z,7.65
2023-02-15T18:03:27.149Z,7.65
2023-02-15T18:04:55.969Z,6.38
2023-02-15T18:07:41.072Z,8.02
2023-02-15T18:08:27.161Z,8.02
2023-02-15T18:10:34.286Z,7.88
2023-02-15T18:13:00.736Z,11.63
2023-02-15T18:13:27.160Z,11.63
2023-02-15T18:15:27.737Z,10.30
2023-02-15T18:17:54.564Z,10.20
2023-02-15T18:18:27.206Z,10.20
2023-02-15T18:20:27.174Z,7.25
2023-02-15T18:23:27.142Z,6.39
2023-02-15T18:25:23.596Z,9.30
2023-02-15T18:27:50.052Z,6.53
2023-02-15T18:28:27.155Z,6.53
2023-02-15T18:30:19.704Z,6.38
2023-02-15T18:32:47.971Z,7.25
2023-02-15T18:33:27.184Z,7.25
2023-02-15T18:35:16.655Z,7.13
2023-02-15T18:37:43.397Z,11.00
2023-02-15T18:38:27.143Z,11.00
2023-02-15T18:40:16.521Z,7.45
2023-02-15T18:42:48.001Z,14.00
2023-02-15T18:43:27.167Z,14.00
2023-02-15T18:45:20.966Z,10.35
2023-02-15T18:47:48.697Z,10.52
2023-02-15T18:48:27.156Z,10.52
2023-02-15T18:50:17.433Z,10.40
2023-02-15T18:52:46.279Z,8.35
2023-02-15T18:53:27.141Z,8.35
2023-02-15T18:55:27.791Z,11.15
2023-02-15T18:57:56.209Z,10.45
2023-02-15T18:58:27.175Z,10.45
2023-02-15T19:00:32.399Z,8.85
2023-02-15T19:03:00.046Z,11.63
2023-02-15T19:03:27.184Z,11.63
2023-02-15T19:05:28.337Z,7.28
2023-02-15T19:07:55.077Z,8.60
2023-02-15T19:08:27.154Z,8.60
2023-02-15T19:10:24.494Z,8.30
2023-02-15T19:12:52.377Z,7.28
2023-02-15T19:13:27.185Z,7.28
2023-02-15T19:15:23.164Z,15.52
2023-02-15T19:17:50.103Z,8.75
2023-02-15T19:18:27.151Z,8.75
2023-02-15T19:20:22.234Z,9.45
2023-02-15T19:22:51.049Z,10.50
2023-02-15T19:23:27.144Z,10.50
2023-02-15T19:25:21.693Z,9.10
2023-02-15T19:27:48.240Z,9.38
2023-02-15T19:28:27.241Z,9.38
2023-02-15T19:30:21.504Z,9.60
2023-02-15T19:32:48.288Z,17.05
2023-02-15T19:33:27.172Z,17.05
2023-02-15T19:35:22.413Z,10.82
2023-02-15T19:37:54.402Z,9.68
2023-02-15T19:38:27.165Z,9.68
2023-02-15T19:40:26.353Z,8.43
2023-02-15T19:42:52.994Z,9.73
2023-02-15T19:43:27.187Z,9.73
2023-02-15T19:45:22.480Z,11.23
2023-02-15T19:47:49.264Z,9.70
2023-02-15T19:48:27.161Z,9.70
2023-02-15T19:50:20.160Z,10.35
2023-02-15T19:52:49.262Z,12.60
2023-02-15T19:53:27.192Z,12.60
2023-02-15T19:55:27.670Z,8.18
2023-02-15T19:57:55.701Z,11.57
2023-02-15T19:58:27.160Z,11.57
2023-02-15T20:00:29.193Z,12.82
2023-02-15T20:02:59.070Z,7.10
2023-02-15T20:03:27.139Z,7.10
2023-02-15T20:05:30.877Z,8.13
2023-02-15T20:07:57.963Z,13.30
2023-02-15T20:08:27.176Z,13.30
2023-02-15T20:10:30.003Z,12.18
2023-02-15T20:12:57.581Z,10.57
2023-02-15T20:13:27.177Z,10.57
2023-02-15T20:15:30.166Z,6.28
2023-02-15T20:18:27.732Z,5.23
2023-02-15T20:20:29.025Z,7.70
2023-02-15T20:22:56.048Z,8.48
2023-02-15T20:23:30.301Z,8.48
2023-02-15T20:25:27.784Z,12.38
2023-02-15T20:27:59.223Z,12.97
2023-02-15T20:28:27.269Z,12.97
2023-02-15T20:30:28.344Z,6.57
2023-02-15T20:32:55.703Z,14.30
2023-02-15T20:33:27.197Z,14.30
2023-02-15T20:35:24.404Z,8.75
2023-02-15T20:37:53.679Z,8.55
2023-02-15T20:38:27.180Z,8.55
2023-02-15T20:40:21.387Z,14.85
2023-02-15T20:42:48.065Z,19.02
2023-02-15T20:43:27.168Z,19.02
2023-02-15T20:45:20.394Z,9.30
2023-02-15T20:47:50.910Z,7.88
2023-02-15T20:48:27.202Z,7.88
2023-02-15T20:50:21.515Z,8.35
2023-02-15T20:52:49.868Z,6.88
2023-02-15T20:53:27.165Z,6.88
2023-02-15T20:55:36.688Z,7.43
2023-02-15T20:58:09.107Z,10.77
2023-02-15T20:58:27.220Z,10.77
2023-02-15T21:00:35.674Z,7.75
2023-02-15T21:03:02.239Z,11.80
2023-02-15T21:03:27.253Z,11.80
2023-02-15T21:05:33.323Z,11.32
2023-02-15T21:08:00.478Z,11.48
2023-02-15T21:08:27.220Z,11.48
2023-02-15T21:10:30.254Z,9.63
2023-02-15T21:12:59.750Z,12.13
2023-02-15T21:13:27.161Z,12.13
2023-02-15T21:15:44.158Z,7.60
2023-02-15T21:18:18.450Z,9.55
2023-02-15T21:18:27.183Z,9.55
2023-02-15T21:20:49.416Z,8.60
2023-02-15T21:23:18.984Z,7.15
2023-02-15T21:23:27.182Z,7.15
2023-02-15T21:25:46.452Z,7.13
2023-02-15T21:28:20.181Z,6.78
2023-02-15T21:28:27.252Z,6.78
2023-02-15T21:30:48.634Z,11.77
2023-02-15T21:33:16.121Z,8.02
2023-02-15T21:33:27.196Z,8.02
2023-02-15T21:35:49.415Z,14.95
2023-02-15T21:38:20.790Z,7.30
2023-02-15T21:38:27.162Z,7.30
2023-02-15T21:40:48.282Z,8.07
2023-02-15T21:43:35.646Z,10.60
2023-02-15T21:43:35.811Z,10.60
2023-02-15T21:46:38.010Z,8.80
2023-02-15T21:48:27.161Z,8.80
2023-02-15T21:49:07.106Z,9.05
2023-02-15T21:51:52.689Z,8.30
2023-02-15T21:53:27.226Z,8.30
2023-02-15T21:54:20.103Z,6.70
2023-02-15T21:56:48.684Z,6.85
2023-02-15T21:58:27.232Z,6.85
2023-02-15T21:59:17.142Z,8.35
2023-02-15T22:01:51.546Z,7.22
2023-02-15T22:03:27.190Z,7.22
2023-02-15T22:04:25.042Z,8.40
2023-02-15T22:06:51.631Z,10.70
2023-02-15T22:08:27.199Z,10.70
2023-02-15T22:09:20.844Z,6.15
2023-02-15T22:11:47.661Z,12.38
2023-02-15T22:13:27.254Z,12.38
2023-02-15T22:14:37.310Z,5.90
2023-02-15T22:17:14.667Z,7.65
2023-02-15T22:18:33.262Z,7.65
2023-02-15T22:26:27.620Z,6.07
2023-02-15T22:32:39.651Z,8.25
2023-02-15T22:33:27.811Z,8.25
2023-02-15T22:35:07.083Z,5.93
2023-02-15T22:37:33.679Z,8.98
2023-02-15T22:38:27.299Z,8.98
2023-02-15T22:40:00.667Z,7.57
2023-02-15T22:42:28.611Z,6.65
2023-02-15T22:43:27.307Z,6.65
2023-02-15T22:44:59.762Z,6.55
2023-02-15T22:47:29.764Z,9.73
2023-02-15T22:48:28.909Z,9.73